createdAt,value
2024-02-24T00:00:02.520Z,99.90
2024-02-24T00:02:30.134Z,99.90
2024-02-24T00:04:58.744Z,99.90
2024-02-24T00:07:26.187Z,99.90
2024-02-24T00:09:53.633Z,99.90
2024-02-24T00:12:21.376Z,99.90
2024-02-24T00:14:48.774Z,99.90
2024-02-24T00:17:16.290Z,99.90
2024-02-24T00:19:43.674Z,99.90
2024-02-24T00:22:11.022Z,99.90
2024-02-24T00:24:39.584Z,99.90
2024-02-24T00:27:06.924Z,99.90
2024-02-24T00:29:34.360Z,99.90
2024-02-24T00:32:01.647Z,99.90
2024-02-24T00:34:29.232Z,99.90
2024-02-24T00:36:56.571Z,99.90
2024-02-24T00:39:24.031Z,99.90
2024-02-24T00:41:53.462Z,99.90
2024-02-24T00:44:20.808Z,99.90
2024-02-24T00:46:48.454Z,99.90
2024-02-24T00:49:15.825Z,99.90
2024-02-24T00:51:43.259Z,99.90
2024-02-24T00:54:10.714Z,99.90
2024-02-24T00:56:38.140Z,99.90
2024-02-24T00:59:05.930Z,99.90
2024-02-24T01:01:33.886Z,99.90
2024-02-24T01:04:02.024Z,99.90
2024-02-24T01:06:29.707Z,99.90
2024-02-24T01:08:57.187Z,99.90
2024-02-24T01:11:24.658Z,99.90
2024-02-24T01:13:52.193Z,99.90
2024-02-24T01:16:19.969Z,99.90
2024-02-24T01:18:47.734Z,99.90
2024-02-24T01:21:15.200Z,99.90
2024-02-24T01:23:43.387Z,99.90
2024-02-24T01:26:10.797Z,99.90
2024-02-24T01:28:38.934Z,99.90
2024-02-24T01:31:06.436Z,99.90
2024-02-24T01:33:34.125Z,99.90
2024-02-24T01:36:01.538Z,99.90
2024-02-24T01:38:29.181Z,99.90
2024-02-24T01:40:56.537Z,99.90
2024-02-24T01:43:29.992Z,99.90
2024-02-24T01:45:58.281Z,99.90
2024-02-24T01:48:26.240Z,99.90
2024-02-24T01:50:54.340Z,99.90
2024-02-24T01:53:23.127Z,99.90
2024-02-24T01:55:51.911Z,99.90
2024-02-24T01:58:19.817Z,99.90
2024-02-24T02:00:48.177Z,99.90
2024-02-24T02:03:15.623Z,99.90
2024-02-24T02:05:43.253Z,99.90
2024-02-24T02:08:10.796Z,99.90
2024-02-24T02:10:44.925Z,99.90
2024-02-24T02:13:12.465Z,99.90
2024-02-24T02:15:40.768Z,99.90
2024-02-24T02:18:08.511Z,99.90
2024-02-24T02:20:36.149Z,99.90
2024-02-24T02:23:04.319Z,99.90
2024-02-24T02:25:31.908Z,99.90
2024-02-24T02:27:59.427Z,99.90
2024-02-24T02:30:26.888Z,99.90
2024-02-24T02:32:54.310Z,99.90
2024-02-24T02:35:21.985Z,99.90
2024-02-24T02:37:49.502Z,99.90
2024-02-24T02:40:17.049Z,99.90
2024-02-24T02:42:44.602Z,99.90
2024-02-24T02:45:12.149Z,99.90
2024-02-24T02:47:39.573Z,99.90
2024-02-24T02:50:08.710Z,99.90
2024-02-24T02:52:36.291Z,99.90
2024-02-24T02:55:03.872Z,99.90
2024-02-24T02:57:31.312Z,99.90
2024-02-24T02:59:58.689Z,99.90
2024-02-24T03:02:26.302Z,99.90
2024-02-24T03:04:54.510Z,99.90
2024-02-24T03:07:22.146Z,99.90
2024-02-24T03:09:50.058Z,99.90
2024-02-24T03:12:17.647Z,99.90
2024-02-24T03:14:45.401Z,99.90
2024-02-24T03:17:13.015Z,99.90
2024-02-24T03:19:41.412Z,99.90
2024-02-24T03:22:09.015Z,99.90
2024-02-24T03:24:36.406Z,99.90
2024-02-24T03:27:03.859Z,99.90
2024-02-24T03:29:31.266Z,99.90
2024-02-24T03:31:58.655Z,99.90
2024-02-24T03:34:26.245Z,99.90
2024-02-24T03:36:54.010Z,99.90
2024-02-24T03:39:25.431Z,99.90
2024-02-24T03:41:52.889Z,99.90
2024-02-24T03:44:20.400Z,99.90
2024-02-24T03:46:47.819Z,99.90
2024-02-24T03:49:15.268Z,99.90
2024-02-24T03:51:42.713Z,99.90
2024-02-24T03:54:11.731Z,99.90
2024-02-24T03:56:39.174Z,99.90
2024-02-24T03:59:08.165Z,99.90
2024-02-24T04:01:35.629Z,99.90
2024-02-24T04:04:03.098Z,99.90
2024-02-24T04:06:30.574Z,99.90
2024-02-24T04:08:58.088Z,99.90
2024-02-24T04:11:25.663Z,99.90
2024-02-24T04:13:53.235Z,99.90
2024-02-24T04:16:21.304Z,99.90
2024-02-24T04:18:48.726Z,99.90
2024-02-24T04:21:18.555Z,99.90
2024-02-24T04:23:46.042Z,99.90
2024-02-24T04:26:13.639Z,99.90
2024-02-24T04:28:42.400Z,99.90
2024-02-24T04:31:09.871Z,99.90
2024-02-24T04:33:37.398Z,99.90
2024-02-24T04:36:05.330Z,99.90
2024-02-24T04:38:32.803Z,99.90
2024-02-24T04:41:00.474Z,99.90
2024-02-24T04:43:27.903Z,99.90
2024-02-24T04:45:55.278Z,99.90
2024-02-24T04:48:22.740Z,99.90
2024-02-24T04:50:50.359Z,99.90
2024-02-24T04:53:17.876Z,99.90
2024-02-24T04:55:45.327Z,99.90
2024-02-24T04:58:12.878Z,99.90
2024-02-24T05:00:40.230Z,99.90
2024-02-24T05:03:07.588Z,99.90
2024-02-24T05:05:35.026Z,99.90
2024-02-24T05:08:02.770Z,99.90
2024-02-24T05:10:30.049Z,99.90
2024-02-24T05:12:57.519Z,99.90
2024-02-24T05:15:26.071Z,99.90
2024-02-24T05:17:53.463Z,99.90
2024-02-24T05:20:21.037Z,99.90
2024-02-24T05:22:48.347Z,99.90
2024-02-24T05:25:18.071Z,99.90
2024-02-24T05:27:45.679Z,99.90
2024-02-24T05:30:13.073Z,99.90
2024-02-24T05:32:40.609Z,99.90
2024-02-24T05:35:08.735Z,99.90
2024-02-24T05:37:36.070Z,99.90
2024-02-24T05:40:03.791Z,99.90
2024-02-24T05:42:31.430Z,99.90
2024-02-24T05:44:59.016Z,99.90
2024-02-24T05:47:28.445Z,99.90
2024-02-24T05:49:56.012Z,99.90
2024-02-24T05:52:23.550Z,99.90
2024-02-24T05:54:50.912Z,99.90
2024-02-24T05:57:23.312Z,99.90
2024-02-24T05:59:52.024Z,99.90
2024-02-24T06:02:23.357Z,99.90
2024-02-24T06:04:51.819Z,99.90
2024-02-24T06:07:23.572Z,99.90
2024-02-24T06:09:53.261Z,99.90
2024-02-24T06:12:20.852Z,99.90
2024-02-24T06:14:48.226Z,99.90
2024-02-24T06:17:15.793Z,99.90
2024-02-24T06:19:43.307Z,99.90
2024-02-24T06:22:10.824Z,99.90
2024-02-24T06:24:38.744Z,99.90
2024-02-24T06:27:07.133Z,99.90
2024-02-24T06:29:36.191Z,99.90
2024-02-24T06:32:04.624Z,99.90
2024-02-24T06:34:32.209Z,99.90
2024-02-24T06:37:01.421Z,99.90
2024-02-24T06:39:29.809Z,99.90
2024-02-24T06:41:58.661Z,99.90
2024-02-24T06:44:27.411Z,99.90
2024-02-24T06:46:55.656Z,99.90
2024-02-24T06:49:23.366Z,99.90
2024-02-24T06:51:55.192Z,99.90
2024-02-24T06:54:22.847Z,99.90
2024-02-24T06:56:50.605Z,99.90
2024-02-24T06:59:19.687Z,99.90
2024-02-24T07:01:47.074Z,99.90
2024-02-24T07:04:15.977Z,99.90
2024-02-24T07:06:43.681Z,99.90
2024-02-24T07:09:11.306Z,99.90
2024-02-24T07:14:20.242Z,99.90
2024-02-24T07:16:47.649Z,99.90
2024-02-24T07:19:15.174Z,99.90
2024-02-24T07:21:44.911Z,99.90
2024-02-24T07:26:58.207Z,99.90
2024-02-24T07:29:25.641Z,99.90
2024-02-24T07:31:54.106Z,99.90
2024-02-24T07:34:21.955Z,99.90
2024-02-24T07:36:49.369Z,99.90
2024-02-24T07:39:17.344Z,99.90
2024-02-24T07:41:45.033Z,99.90
2024-02-24T07:44:14.482Z,99.90
2024-02-24T07:46:43.562Z,99.90
2024-02-24T07:49:11.327Z,99.90
2024-02-24T07:51:40.192Z,99.90
2024-02-24T07:54:07.771Z,99.90
2024-02-24T07:56:35.398Z,99.90
2024-02-24T07:59:07.875Z,99.90
2024-02-24T08:01:35.394Z,99.90
2024-02-24T08:04:02.913Z,99.90
2024-02-24T08:06:30.784Z,99.90
2024-02-24T08:08:58.281Z,99.90
2024-02-24T08:11:25.721Z,99.90
2024-02-24T08:13:53.089Z,99.90
2024-02-24T08:16:23.358Z,99.90
2024-02-24T08:18:51.139Z,99.90
2024-02-24T08:21:23.866Z,99.90
2024-02-24T08:23:51.525Z,99.90
2024-02-24T08:26:18.987Z,99.90
2024-02-24T08:28:46.838Z,99.90
2024-02-24T08:31:14.809Z,99.90
2024-02-24T08:33:43.364Z,99.90
2024-02-24T08:36:15.909Z,99.90
2024-02-24T08:38:44.785Z,99.90
2024-02-24T08:41:12.270Z,99.90
2024-02-24T08:43:39.871Z,99.90
2024-02-24T08:46:09.786Z,99.90
2024-02-24T08:48:38.959Z,99.90
2024-02-24T08:51:06.675Z,99.90
2024-02-24T08:53:34.330Z,99.90
2024-02-24T08:56:02.840Z,99.90
2024-02-24T08:58:30.658Z,99.90
2024-02-24T09:00:59.464Z,99.90
2024-02-24T09:03:26.993Z,99.90
2024-02-24T09:05:54.689Z,99.90
2024-02-24T09:08:22.134Z,99.90
2024-02-24T09:10:49.658Z,99.90
2024-02-24T09:13:17.195Z,99.90
2024-02-24T09:15:44.505Z,99.90
2024-02-24T09:18:12.284Z,99.90
2024-02-24T09:20:39.871Z,99.90
2024-02-24T09:23:07.221Z,99.90
2024-02-24T09:25:34.637Z,99.90
2024-02-24T09:28:02.260Z,99.90
2024-02-24T09:30:29.929Z,99.90
2024-02-24T09:32:57.722Z,99.90
2024-02-24T09:35:25.496Z,99.90
2024-02-24T09:37:53.012Z,99.90
2024-02-24T09:40:20.442Z,99.90
2024-02-24T09:42:48.640Z,99.90
2024-02-24T09:45:16.516Z,99.90
2024-02-24T09:47:45.796Z,99.90
2024-02-24T09:50:13.678Z,99.90
2024-02-24T09:52:43.159Z,99.90
2024-02-24T09:55:11.993Z,99.90
2024-02-24T09:57:41.349Z,99.90
2024-02-24T10:00:09.291Z,99.90
2024-02-24T10:02:36.802Z,99.90
2024-02-24T10:05:05.053Z,99.90
2024-02-24T10:07:34.944Z,99.90
2024-02-24T10:10:02.704Z,99.90
2024-02-24T10:12:31.197Z,99.90
2024-02-24T10:14:58.711Z,99.90
2024-02-24T10:17:32.673Z,99.90
2024-02-24T10:20:00.562Z,99.90
2024-02-24T10:22:31.180Z,99.90
2024-02-24T10:24:58.787Z,99.90
2024-02-24T10:27:28.775Z,99.90
2024-02-24T10:29:56.448Z,99.90
2024-02-24T10:32:25.170Z,99.90
2024-02-24T10:34:54.528Z,99.90
2024-02-24T10:37:22.480Z,99.90
2024-02-24T10:39:51.356Z,99.90
2024-02-24T10:42:19.291Z,99.90
2024-02-24T10:44:47.774Z,99.90
2024-02-24T10:47:15.184Z,99.90
2024-02-24T10:49:43.647Z,99.90
2024-02-24T10:52:11.964Z,99.90
2024-02-24T10:54:41.017Z,99.90
2024-02-24T10:57:09.290Z,99.90
2024-02-24T10:59:37.557Z,99.90
2024-02-24T11:02:06.955Z,99.90
2024-02-24T11:04:38.467Z,99.90
2024-02-24T11:07:19.851Z,99.90
2024-02-24T11:09:55.150Z,86.20
2024-02-24T11:12:23.742Z,64.90
2024-02-24T11:14:54.113Z,37.20
2024-02-24T11:17:51.902Z,13.40
2024-02-24T11:20:41.199Z,1.00
2024-02-24T11:23:26.231Z,1.00
2024-02-24T11:26:12.471Z,1.00
2024-02-24T11:28:41.468Z,1.00
2024-02-24T11:31:09.147Z,1.00
2024-02-24T11:33:39.121Z,6.60
2024-02-24T11:36:07.677Z,1.00
2024-02-24T11:38:35.532Z,99.90
2024-02-24T11:41:06.948Z,1.00
2024-02-24T11:43:34.730Z,1.00
2024-02-24T11:46:05.272Z,1.00
2024-02-24T11:48:32.945Z,1.00
2024-02-24T11:51:00.616Z,1.60
2024-02-24T11:53:31.132Z,1.00
2024-02-24T11:55:58.718Z,1.00
2024-02-24T11:58:27.093Z,1.00
2024-02-24T12:00:56.474Z,1.00
2024-02-24T12:03:25.350Z,1.00
2024-02-24T12:05:53.174Z,1.00
2024-02-24T12:08:24.251Z,1.00
2024-02-24T12:10:51.974Z,1.00
2024-02-24T12:13:19.999Z,1.00
2024-02-24T12:15:48.213Z,1.00
2024-02-24T12:18:15.966Z,1.00
2024-02-24T12:20:50.054Z,1.00
2024-02-24T12:23:18.614Z,1.00
2024-02-24T12:25:50.255Z,1.00
2024-02-24T12:28:18.646Z,1.00
2024-02-24T12:30:46.407Z,1.00
2024-02-24T12:33:18.153Z,1.00
2024-02-24T12:35:50.117Z,1.00
2024-02-24T12:38:19.025Z,1.00
2024-02-24T12:40:46.785Z,1.00
2024-02-24T12:43:14.420Z,1.00
2024-02-24T12:45:41.939Z,1.00
2024-02-24T12:48:09.843Z,1.00
2024-02-24T12:50:37.657Z,1.00
2024-02-24T12:53:07.621Z,99.90
2024-02-24T12:55:36.192Z,99.90
2024-02-24T12:58:04.702Z,99.90
2024-02-24T13:00:32.202Z,99.90
2024-02-24T13:03:02.942Z,56.30
2024-02-24T13:05:30.605Z,3.00
2024-02-24T13:07:58.240Z,1.00
2024-02-24T13:10:25.646Z,1.00
2024-02-24T13:12:53.316Z,1.00
2024-02-24T13:15:20.660Z,1.00
2024-02-24T13:17:48.063Z,1.00
2024-02-24T13:20:15.731Z,1.00
2024-02-24T13:22:43.314Z,1.00
2024-02-24T13:25:11.077Z,1.00
2024-02-24T13:27:38.643Z,1.00
2024-02-24T13:30:06.804Z,1.00
2024-02-24T13:32:34.410Z,1.00
2024-02-24T13:35:02.040Z,1.00
2024-02-24T13:37:31.569Z,1.00
2024-02-24T13:39:58.952Z,1.00
2024-02-24T13:42:27.621Z,5.00
2024-02-24T13:44:56.083Z,99.90
2024-02-24T13:47:23.632Z,99.90
2024-02-24T13:49:51.115Z,99.90
2024-02-24T13:52:18.608Z,99.90
2024-02-24T13:54:45.966Z,99.90
2024-02-24T13:57:13.575Z,99.90
2024-02-24T13:59:41.027Z,99.90
2024-02-24T14:02:08.385Z,99.90
2024-02-24T14:04:35.806Z,99.90
2024-02-24T14:07:03.648Z,99.90
2024-02-24T14:09:31.235Z,99.90
2024-02-24T14:11:58.741Z,97.30
2024-02-24T14:14:27.722Z,1.00
2024-02-24T14:16:55.124Z,1.00
2024-02-24T14:19:24.102Z,1.00
2024-02-24T14:21:51.933Z,1.00
2024-02-24T14:24:19.305Z,1.00
2024-02-24T14:26:46.867Z,1.00
2024-02-24T14:29:14.574Z,1.00
2024-02-24T14:31:42.151Z,1.00
2024-02-24T14:34:09.691Z,1.00
2024-02-24T14:36:37.346Z,1.00
2024-02-24T14:39:06.646Z,1.00
2024-02-24T14:41:34.331Z,1.00
2024-02-24T14:44:02.024Z,1.00
2024-02-24T14:46:29.445Z,1.00
2024-02-24T14:48:57.063Z,1.00
2024-02-24T14:51:24.712Z,1.00
2024-02-24T14:53:52.802Z,1.00
2024-02-24T14:56:20.661Z,1.00
2024-02-24T14:58:48.249Z,1.00
2024-02-24T15:01:16.016Z,1.00
2024-02-24T15:03:45.880Z,1.00
2024-02-24T15:06:17.238Z,1.00
2024-02-24T15:08:44.762Z,1.00
2024-02-24T15:11:12.630Z,1.00
2024-02-24T15:13:40.204Z,1.00
2024-02-24T15:16:10.529Z,1.00
2024-02-24T15:18:37.954Z,1.00
2024-02-24T15:21:06.232Z,1.00
2024-02-24T15:23:33.651Z,1.00
2024-02-24T15:26:01.028Z,1.00
2024-02-24T15:28:28.466Z,1.00
2024-02-24T15:30:55.894Z,1.00
2024-02-24T15:33:23.608Z,1.70
2024-02-24T15:35:51.313Z,68.60
2024-02-24T15:38:18.731Z,63.50
2024-02-24T15:40:46.019Z,99.90
2024-02-24T15:43:13.453Z,99.90
2024-02-24T15:45:40.761Z,99.90
2024-02-24T15:48:08.470Z,99.90
2024-02-24T15:50:36.138Z,99.90
2024-02-24T15:53:03.548Z,99.90
2024-02-24T15:55:30.823Z,99.90
2024-02-24T15:57:58.721Z,99.90
2024-02-24T16:00:26.062Z,99.90
2024-02-24T16:02:53.355Z,1.00
2024-02-24T16:05:22.908Z,1.00
2024-02-24T16:07:50.640Z,1.00
2024-02-24T16:10:18.325Z,1.00
2024-02-24T16:12:46.165Z,1.00
2024-02-24T16:15:13.526Z,1.00
2024-02-24T16:17:41.108Z,1.00
2024-02-24T16:20:09.176Z,1.00
2024-02-24T16:22:36.613Z,1.00
2024-02-24T16:25:04.200Z,1.00
2024-02-24T16:27:31.500Z,99.90
2024-02-24T16:29:59.093Z,1.00
2024-02-24T16:32:26.629Z,1.00
2024-02-24T16:34:54.004Z,1.00
2024-02-24T16:37:23.350Z,99.90
2024-02-24T16:39:51.656Z,99.90
2024-02-24T16:42:18.999Z,1.00
2024-02-24T16:44:46.615Z,1.00
2024-02-24T16:47:15.109Z,99.90
2024-02-24T16:49:42.705Z,1.00
2024-02-24T16:52:10.287Z,1.00
2024-02-24T16:54:40.333Z,99.90
2024-02-24T16:57:10.412Z,99.90
2024-02-24T16:59:39.774Z,99.90
2024-02-24T17:02:10.405Z,99.90
2024-02-24T17:04:38.416Z,99.90
2024-02-24T17:07:05.891Z,99.90
2024-02-24T17:09:33.303Z,99.90
2024-02-24T17:12:01.376Z,99.90
2024-02-24T17:14:28.824Z,99.90
2024-02-24T17:16:56.155Z,99.90
2024-02-24T17:19:23.799Z,99.90
2024-02-24T17:21:51.693Z,99.90
2024-02-24T17:24:19.114Z,99.90
2024-02-24T17:26:47.443Z,99.90
2024-02-24T17:29:15.031Z,99.90
2024-02-24T17:31:42.343Z,99.90
2024-02-24T17:34:09.749Z,99.90
2024-02-24T17:36:40.472Z,99.90
2024-02-24T17:39:08.117Z,99.90
2024-02-24T17:41:36.546Z,99.90
2024-02-24T17:44:03.923Z,99.90
2024-02-24T17:46:31.545Z,99.90
2024-02-24T17:48:59.212Z,99.90
2024-02-24T17:51:27.771Z,99.90
2024-02-24T17:53:55.286Z,99.90
2024-02-24T17:56:23.198Z,99.90
2024-02-24T17:58:50.596Z,99.90
2024-02-24T18:01:18.267Z,99.90
2024-02-24T18:03:45.655Z,99.90
2024-02-24T18:06:13.198Z,99.90
2024-02-24T18:08:40.826Z,99.90
2024-02-24T18:11:10.813Z,99.90
2024-02-24T18:13:39.266Z,99.90
2024-02-24T18:16:09.632Z,99.90
2024-02-24T18:18:37.190Z,99.90
2024-02-24T18:21:05.268Z,99.90
2024-02-24T18:23:32.981Z,99.90
2024-02-24T18:26:01.244Z,99.90
2024-02-24T18:28:36.738Z,99.90
2024-02-24T18:31:04.364Z,99.90
2024-02-24T18:33:32.477Z,99.90
2024-02-24T18:36:00.042Z,99.90
2024-02-24T18:38:27.744Z,99.90
2024-02-24T18:40:55.198Z,99.90
2024-02-24T18:43:23.311Z,99.90
2024-02-24T18:45:51.256Z,99.90
2024-02-24T18:48:19.014Z,99.90
2024-02-24T18:50:46.571Z,99.90
2024-02-24T18:53:14.335Z,99.90
2024-02-24T18:55:41.893Z,99.90
2024-02-24T18:58:09.430Z,99.90
2024-02-24T19:00:37.593Z,99.90
2024-02-24T19:03:05.642Z,99.90
2024-02-24T19:05:33.716Z,99.90
2024-02-24T19:13:52.527Z,99.90
2024-02-24T19:16:20.351Z,99.90
2024-02-24T19:18:48.200Z,99.90
2024-02-24T19:21:15.737Z,99.90
2024-02-24T19:23:43.220Z,99.90
2024-02-24T19:26:10.797Z,99.90
2024-02-24T19:28:40.488Z,99.90
2024-02-24T19:31:07.959Z,99.90
2024-02-24T19:33:35.778Z,99.90
2024-02-24T19:36:03.963Z,99.90
2024-02-24T19:38:31.500Z,99.90
2024-02-24T19:40:58.757Z,99.90
2024-02-24T19:43:26.074Z,99.90
2024-02-24T19:45:54.345Z,99.90
2024-02-24T19:48:21.761Z,99.90
2024-02-24T19:50:50.254Z,99.90
2024-02-24T19:53:17.806Z,99.90
2024-02-24T19:55:45.157Z,99.90
2024-02-24T19:58:21.260Z,99.90
2024-02-24T20:00:56.844Z,99.90
2024-02-24T20:03:24.531Z,99.90
2024-02-24T20:05:52.021Z,99.90
2024-02-24T20:08:19.583Z,99.90
2024-02-24T20:10:46.889Z,99.90
2024-02-24T20:13:14.200Z,99.90
2024-02-24T20:15:42.746Z,99.90
2024-02-24T20:18:10.235Z,99.90
2024-02-24T20:20:37.627Z,99.90
2024-02-24T20:23:05.076Z,99.90
2024-02-24T20:25:32.404Z,99.90
2024-02-24T20:28:00.915Z,99.90
2024-02-24T20:30:28.363Z,99.90
2024-02-24T20:32:55.758Z,99.90
2024-02-24T20:35:28.252Z,99.90
2024-02-24T20:37:55.978Z,99.90
2024-02-24T20:40:23.273Z,99.90
2024-02-24T20:42:50.593Z,99.90
2024-02-24T20:45:17.977Z,99.90
2024-02-24T20:47:45.436Z,99.90
2024-02-24T20:50:14.565Z,99.90
2024-02-24T20:52:41.959Z,99.90
2024-02-24T20:55:09.543Z,99.90
2024-02-24T20:57:37.031Z,99.90
2024-02-24T21:00:05.950Z,99.90
2024-02-24T21:02:33.645Z,99.90
2024-02-24T21:05:01.153Z,99.90
2024-02-24T21:07:28.475Z,99.90
2024-02-24T21:09:55.841Z,99.90
2024-02-24T21:12:23.446Z,99.90
2024-02-24T21:14:51.101Z,99.90
2024-02-24T21:17:18.525Z,99.90
2024-02-24T21:19:46.264Z,99.90
2024-02-24T21:22:14.055Z,99.90
2024-02-24T21:24:42.001Z,99.90
2024-02-24T21:27:09.432Z,99.90
2024-02-24T21:29:36.756Z,99.90
2024-02-24T21:32:05.104Z,99.90
2024-02-24T21:34:32.725Z,99.90
2024-02-24T21:37:00.109Z,99.90
2024-02-24T21:39:27.362Z,99.90
2024-02-24T21:41:54.754Z,99.90
2024-02-24T21:44:22.130Z,99.90
2024-02-24T21:46:49.468Z,99.90
2024-02-24T21:49:19.331Z,99.90
2024-02-24T21:51:46.774Z,99.90
2024-02-24T21:54:15.829Z,99.90
2024-02-24T21:56:51.840Z,99.90
2024-02-24T21:59:19.491Z,99.90
2024-02-24T22:01:46.909Z,99.90
2024-02-24T22:04:14.447Z,99.90
2024-02-24T22:06:41.922Z,99.90
2024-02-24T22:09:09.541Z,99.90
2024-02-24T22:11:39.348Z,99.90
2024-02-24T22:14:06.761Z,99.90
2024-02-24T22:16:34.039Z,99.90
2024-02-24T22:19:01.638Z,99.90
2024-02-24T22:21:29.096Z,99.90
2024-02-24T22:23:56.513Z,99.90
2024-02-24T22:26:25.192Z,99.90
2024-02-24T22:28:53.560Z,99.90
2024-02-24T22:31:21.799Z,99.90
2024-02-24T22:33:49.382Z,99.90
2024-02-24T22:36:16.903Z,99.90
2024-02-24T22:38:44.812Z,99.90
2024-02-24T22:41:12.289Z,99.90
2024-02-24T22:43:39.667Z,99.90
2024-02-24T22:46:08.439Z,99.90
2024-02-24T22:48:35.921Z,99.90
2024-02-24T22:51:03.362Z,99.90
2024-02-24T22:53:30.674Z,99.90
2024-02-24T22:55:58.079Z,99.90
2024-02-24T22:58:25.444Z,99.90
2024-02-24T23:00:52.698Z,99.90
2024-02-24T23:03:23.741Z,99.90
2024-02-24T23:05:51.465Z,99.90
2024-02-24T23:08:18.766Z,99.90
2024-02-24T23:10:46.209Z,99.90
2024-02-24T23:13:13.529Z,99.90
2024-02-24T23:15:40.767Z,99.90
2024-02-24T23:18:09.272Z,99.90
2024-02-24T23:20:36.747Z,99.90
2024-02-24T23:23:04.251Z,99.90
2024-02-24T23:25:32.966Z,99.90
2024-02-24T23:28:00.372Z,99.90
2024-02-24T23:30:27.850Z,99.90
2024-02-24T23:32:55.332Z,99.90
2024-02-24T23:35:23.127Z,99.90
2024-02-24T23:37:50.414Z,99.90
2024-02-24T23:40:17.914Z,99.90
2024-02-24T23:42:45.726Z,99.90
2024-02-24T23:45:13.115Z,99.90
2024-02-24T23:47:42.414Z,99.90
2024-02-24T23:50:10.274Z,99.90
2024-02-24T23:52:37.583Z,99.90
2024-02-24T23:55:06.392Z,99.90
2024-02-24T23:57:35.120Z,99.90
